Time;durP1;ratioP1;P1;durP2;ratioP2;P2;SDS_P1;SDS_P2;PMS_P1;PMS_P2;Temp;Humidity;BMP_temperature;BMP_pressure;BME280_temperature;BME280_humidity;BME280_pressure;Samples;Min_cycle;Max_cycle;Signal;HPM_P1;HPM_P2
2021/12/07 00:00:08;;;;;;;;;;;0.30;99.90;;;;;;4999420;28;19939;-78
2021/12/07 00:02:33;;;;;;;;;;;0.40;99.90;;;;;;5016982;28;19909;-79
2021/12/07 00:04:59;;;;;;;;;;;0.50;99.90;;;;;;5015818;28;19913;-79
2021/12/07 00:07:25;;;;;;;;;;;0.60;99.90;;;;;;5016891;28;19909;-78
2021/12/07 00:09:50;;;;;;;;;;;0.70;99.90;;;;;;4998828;28;19909;-79
2021/12/07 00:12:17;;;;;;;;;;;0.70;99.90;;;;;;5016490;28;20003;-78
2021/12/07 00:14:44;;;;;;;;;;;0.70;99.90;;;;;;4998946;28;19906;-79
2021/12/07 00:17:10;;;;;;;;;;;0.50;99.90;;;;;;5014873;28;19905;-79
2021/12/07 00:19:36;;;;;;;;;;;0.50;99.90;;;;;;5016519;28;20290;-79
2021/12/07 00:22:03;;;;;;;;;;;0.40;99.90;;;;;;5014922;28;19936;-79
2021/12/07 00:24:29;;;;;;;;;;;0.20;99.90;;;;;;5016086;28;19905;-79
2021/12/07 00:26:55;;;;;;;;;;;0.10;99.90;;;;;;4998584;28;19906;-79
2021/12/07 00:29:21;;;;;;;;;;;0.20;99.90;;;;;;5015367;28;20044;-79
2021/12/07 00:31:53;;;;;;;;;;;0.10;99.90;;;;;;5015981;28;19968;-79
2021/12/07 00:36:58;;;;;;;;;;;0.50;99.90;;;;;;5014780;28;19905;-78
2021/12/07 00:39:24;;;;;;;;;;;0.60;99.90;;;;;;5016488;28;19912;-79
2021/12/07 00:41:51;;;;;;;;;;;0.50;99.90;;;;;;4998921;28;19909;-79
2021/12/07 00:44:18;;;;;;;;;;;0.60;99.90;;;;;;5015230;28;19916;-79
2021/12/07 00:46:43;;;;;;;;;;;0.50;99.90;;;;;;5015110;28;20349;-79
2021/12/07 00:49:09;;;;;;;;;;;0.30;99.90;;;;;;5015880;28;19912;-80
2021/12/07 00:51:35;;;;;;;;;;;0.30;99.90;;;;;;5016859;28;19906;-79
2021/12/07 00:54:01;;;;;;;;;;;0.50;99.90;;;;;;5015829;28;19912;-78
2021/12/07 00:56:26;;;;;;;;;;;0.50;99.90;;;;;;4998558;28;19913;-79
2021/12/07 00:58:52;;;;;;;;;;;0.50;99.90;;;;;;5016885;28;19905;-77
2021/12/07 01:01:18;;;;;;;;;;;0.50;99.90;;;;;;4998244;28;19913;-79
2021/12/07 01:03:45;;;;;;;;;;;0.50;99.90;;;;;;5014906;28;19933;-79
2021/12/07 01:06:24;;;;;;;;;;;0.60;99.90;;;;;;5014627;28;20385;-78
2021/12/07 01:25:25;;;;;;;;;;;0.70;99.90;;;;;;5016197;28;19928;-79
2021/12/07 01:27:53;;;;;;;;;;;0.60;99.90;;;;;;5014601;28;19905;-77
2021/12/07 01:30:30;;;;;;;;;;;0.30;99.90;;;;;;5015326;28;19932;-79
2021/12/07 01:33:23;;;;;;;;;;;0.20;99.90;;;;;;4998479;28;19905;-79
2021/12/07 01:47:26;;;;;;;;;;;0.30;99.90;;;;;;4990212;28;19913;-79
2021/12/07 01:52:42;;;;;;;;;;;0.20;99.90;;;;;;5019659;28;19913;-79
2021/12/07 01:59:32;;;;;;;;;;;0.30;99.90;;;;;;5020424;28;19906;-79
2021/12/07 02:00:41;;;;;;;;;;;0.40;99.90;;;;;;5018323;28;19964;-79
2021/12/07 02:03:06;;;;;;;;;;;0.20;99.90;;;;;;5019423;28;19909;-78
2021/12/07 02:05:32;;;;;;;;;;;0.10;99.90;;;;;;5019370;28;19975;-78
2021/12/07 02:07:58;;;;;;;;;;;-0.10;99.90;;;;;;5018306;28;19906;-77
2021/12/07 02:10:26;;;;;;;;;;;0.00;99.90;;;;;;5019102;28;19933;-78
2021/12/07 02:12:56;;;;;;;;;;;-0.30;99.90;;;;;;5001154;28;19910;-78
2021/12/07 02:15:23;;;;;;;;;;;-0.40;99.90;;;;;;5017849;28;20402;-79
2021/12/07 02:17:49;;;;;;;;;;;-0.30;99.90;;;;;;5001107;28;19905;-79
2021/12/07 02:20:16;;;;;;;;;;;-0.30;99.90;;;;;;5017350;28;20009;-79
2021/12/07 02:22:41;;;;;;;;;;;-0.30;99.90;;;;;;5019041;28;19929;-78
2021/12/07 02:25:08;;;;;;;;;;;-0.10;99.90;;;;;;5001323;28;20249;-79
2021/12/07 02:27:33;;;;;;;;;;;0.10;99.90;;;;;;5017340;28;19996;-78
2021/12/07 02:29:59;;;;;;;;;;;0.00;99.90;;;;;;5000922;28;20329;-78
2021/12/07 02:32:25;;;;;;;;;;;0.00;99.90;;;;;;5017180;28;19906;-78
2021/12/07 02:34:58;;;;;;;;;;;0.10;99.90;;;;;;5000757;28;19944;-78
2021/12/07 02:37:24;;;;;;;;;;;0.30;99.90;;;;;;5017616;28;19963;-79
2021/12/07 02:39:50;;;;;;;;;;;0.30;99.90;;;;;;5016984;28;19917;-79
2021/12/07 02:42:16;;;;;;;;;;;0.40;99.90;;;;;;5000862;28;19913;-79
2021/12/07 02:44:41;;;;;;;;;;;0.40;99.90;;;;;;5000751;28;19906;-78
2021/12/07 02:47:08;;;;;;;;;;;0.50;99.90;;;;;;5017912;28;19905;-79
2021/12/07 02:49:33;;;;;;;;;;;0.50;99.90;;;;;;5017937;28;19905;-79
2021/12/07 02:51:59;;;;;;;;;;;0.10;99.90;;;;;;5016858;28;19973;-77
2021/12/07 02:54:25;;;;;;;;;;;0.10;99.90;;;;;;5017312;28;19945;-79
2021/12/07 02:56:51;;;;;;;;;;;0.10;99.90;;;;;;5018576;28;19905;-79
2021/12/07 02:59:19;;;;;;;;;;;0.30;99.90;;;;;;5016582;28;20004;-79
2021/12/07 03:01:52;;;;;;;;;;;0.40;99.90;;;;;;5018829;28;19929;-79
2021/12/07 03:04:21;;;;;;;;;;;0.40;99.90;;;;;;5017139;28;19906;-77
2021/12/07 03:28:30;;;;;;;;;;;0.10;99.90;;;;;;5016923;28;19905;-79
2021/12/07 03:30:56;;;;;;;;;;;0.10;99.90;;;;;;5000523;28;19916;-79
2021/12/07 03:33:21;;;;;;;;;;;0.10;99.90;;;;;;5018183;28;19910;-79
2021/12/07 03:35:47;;;;;;;;;;;0.00;99.90;;;;;;4999906;28;19912;-79
2021/12/07 03:38:13;;;;;;;;;;;-0.10;99.90;;;;;;5016294;28;20273;-79
2021/12/07 03:40:39;;;;;;;;;;;-0.20;99.90;;;;;;5017078;28;19910;-79
2021/12/07 03:43:06;;;;;;;;;;;-0.20;99.90;;;;;;5017890;28;19906;-78
2021/12/07 03:45:32;;;;;;;;;;;-0.30;99.90;;;;;;5016717;28;19905;-77
2021/12/07 03:47:59;;;;;;;;;;;-0.60;99.90;;;;;;5016241;28;20317;-79
2021/12/07 03:50:24;;;;;;;;;;;-0.60;99.90;;;;;;5000133;28;19905;-78
2021/12/07 03:52:50;;;;;;;;;;;-0.80;99.90;;;;;;5017066;28;19906;-79
2021/12/07 03:55:16;;;;;;;;;;;-0.70;99.90;;;;;;5015798;28;19916;-80
2021/12/07 03:57:42;;;;;;;;;;;-0.70;99.90;;;;;;5016427;28;19905;-79
2021/12/07 04:00:09;;;;;;;;;;;-0.70;99.90;;;;;;5017931;28;19921;-79
2021/12/07 04:02:39;;;;;;;;;;;-0.80;99.90;;;;;;4999334;28;20381;-79
2021/12/07 04:05:13;;;;;;;;;;;-0.70;99.90;;;;;;5016035;28;19956;-78
2021/12/07 04:07:39;;;;;;;;;;;-0.80;99.90;;;;;;5015669;28;19906;-79
2021/12/07 04:10:06;;;;;;;;;;;-0.90;99.90;;;;;;5017787;28;20254;-79
2021/12/07 04:12:32;;;;;;;;;;;-0.90;99.90;;;;;;5017079;28;19909;-78
2021/12/07 04:14:58;;;;;;;;;;;-0.90;99.90;;;;;;5017275;28;20335;-79
2021/12/07 04:17:24;;;;;;;;;;;-0.90;99.90;;;;;;4999069;28;19947;-77
2021/12/07 04:19:49;;;;;;;;;;;-0.80;99.90;;;;;;5015445;28;20320;-80
2021/12/07 04:22:15;;;;;;;;;;;-0.80;99.90;;;;;;5017210;28;19971;-79
2021/12/07 04:24:41;;;;;;;;;;;-0.80;99.90;;;;;;5015624;28;19955;-79
2021/12/07 04:27:06;;;;;;;;;;;-0.80;99.90;;;;;;5015460;28;19921;-78
2021/12/07 04:29:32;;;;;;;;;;;-0.80;99.90;;;;;;5015520;28;19906;-78
2021/12/07 04:31:58;;;;;;;;;;;-0.80;99.90;;;;;;4999080;28;19996;-79
2021/12/07 04:34:23;;;;;;;;;;;-0.90;99.90;;;;;;5015391;28;19937;-79
2021/12/07 04:36:50;;;;;;;;;;;-0.80;99.90;;;;;;5015618;28;20339;-79
2021/12/07 04:39:15;;;;;;;;;;;-0.90;99.90;;;;;;5015456;28;19906;-79
2021/12/07 04:41:43;;;;;;;;;;;-1.00;99.90;;;;;;5015429;28;20431;-79
2021/12/07 04:44:09;;;;;;;;;;;-1.00;99.90;;;;;;5015343;28;19905;-79
2021/12/07 04:47:25;;;;;;;;;;;-1.00;99.90;;;;;;5015435;28;19912;-78
2021/12/07 05:00:05;;;;;;;;;;;-1.10;99.90;;;;;;5015143;28;20436;-79
2021/12/07 05:02:31;;;;;;;;;;;-1.10;99.90;;;;;;5016094;28;20515;-78
2021/12/07 05:04:57;;;;;;;;;;;-1.10;99.90;;;;;;5016193;28;19909;-77
2021/12/07 05:07:31;;;;;;;;;;;-1.00;99.90;;;;;;4998417;28;19913;-79
2021/12/07 05:12:37;;;;;;;;;;;-0.90;99.90;;;;;;5018204;28;19906;-78
2021/12/07 05:15:16;;;;;;;;;;;-0.90;99.90;;;;;;5018706;28;19913;-79
2021/12/07 05:18:01;;;;;;;;;;;-0.80;99.90;;;;;;5018610;28;19906;-79
2021/12/07 05:39:37;;;;;;;;;;;-0.40;99.90;;;;;;5019844;28;20365;-79
2021/12/07 05:42:03;;;;;;;;;;;-0.20;99.90;;;;;;5020021;28;19924;-79
2021/12/07 05:44:28;;;;;;;;;;;-0.20;99.90;;;;;;5020067;28;19916;-79
2021/12/07 05:46:54;;;;;;;;;;;-0.10;99.90;;;;;;5023357;28;20285;-79
2021/12/07 05:49:19;;;;;;;;;;;-0.10;99.90;;;;;;5018874;28;19905;-79
2021/12/07 05:51:45;;;;;;;;;;;-0.20;99.90;;;;;;5020356;28;19912;-79
2021/12/07 05:54:11;;;;;;;;;;;0.00;99.90;;;;;;5017750;28;19917;-80
2021/12/07 05:56:36;;;;;;;;;;;0.00;99.90;;;;;;5001275;28;19905;-79
2021/12/07 05:59:02;;;;;;;;;;;0.20;99.90;;;;;;5020347;28;19905;-80
2021/12/07 06:01:28;;;;;;;;;;;0.10;99.90;;;;;;5018602;28;19913;-80
2021/12/07 06:03:54;;;;;;;;;;;0.20;99.90;;;;;;5018982;28;20285;-80
2021/12/07 06:06:19;;;;;;;;;;;0.20;99.90;;;;;;5001172;28;19905;-79
2021/12/07 06:08:45;;;;;;;;;;;0.30;99.90;;;;;;5017676;28;19906;-79
2021/12/07 06:11:11;;;;;;;;;;;0.20;99.90;;;;;;5018813;28;19994;-78
2021/12/07 06:13:36;;;;;;;;;;;0.30;99.90;;;;;;5018772;28;19937;-79
2021/12/07 06:16:06;;;;;;;;;;;0.30;99.90;;;;;;5018966;28;19909;-79
2021/12/07 06:18:32;;;;;;;;;;;0.30;99.90;;;;;;5017831;28;19905;-77
2021/12/07 06:20:58;;;;;;;;;;;0.40;99.90;;;;;;5014205;28;19916;-77
2021/12/07 06:23:23;;;;;;;;;;;0.50;99.90;;;;;;5014892;28;20403;-77
2021/12/07 06:25:49;;;;;;;;;;;0.60;99.90;;;;;;5014815;28;19928;-77
2021/12/07 06:28:16;;;;;;;;;;;0.50;99.90;;;;;;5015082;28;19911;-77
2021/12/07 06:30:45;;;;;;;;;;;0.40;99.90;;;;;;5018340;28;19906;-77
2021/12/07 06:33:12;;;;;;;;;;;0.50;99.90;;;;;;5018228;28;19916;-80
2021/12/07 06:35:37;;;;;;;;;;;0.50;99.90;;;;;;5015678;28;19920;-77
2021/12/07 06:38:03;;;;;;;;;;;0.50;99.90;;;;;;5018145;28;20040;-80
2021/12/07 06:40:29;;;;;;;;;;;0.50;99.90;;;;;;5017127;28;19913;-80
2021/12/07 06:42:59;;;;;;;;;;;0.50;99.90;;;;;;5017660;28;19905;-80
2021/12/07 06:45:25;;;;;;;;;;;0.50;99.90;;;;;;5001046;28;19906;-79
2021/12/07 06:47:51;;;;;;;;;;;0.60;99.90;;;;;;5000073;28;19906;-80
2021/12/07 06:50:16;;;;;;;;;;;0.60;99.90;;;;;;5018002;28;19905;-79
2021/12/07 06:52:42;;;;;;;;;;;0.60;99.90;;;;;;4997259;28;19981;-80
2021/12/07 06:55:08;;;;;;;;;;;0.60;99.90;;;;;;4997112;28;19941;-80
2021/12/07 06:57:34;;;;;;;;;;;0.60;99.90;;;;;;4992785;28;19920;-80
2021/12/07 06:59:59;;;;;;;;;;;0.60;99.90;;;;;;5017003;28;19914;-80
2021/12/07 07:02:25;;;;;;;;;;;0.60;99.90;;;;;;5016367;28;19905;-80
2021/12/07 07:04:51;;;;;;;;;;;0.70;99.90;;;;;;5018240;28;19953;-79
2021/12/07 07:07:18;;;;;;;;;;;0.70;99.90;;;;;;5016689;28;20253;-78
2021/12/07 07:09:43;;;;;;;;;;;0.70;99.90;;;;;;5016427;28;19910;-79
2021/12/07 07:12:09;;;;;;;;;;;0.70;99.90;;;;;;5016427;28;19916;-80
2021/12/07 07:14:35;;;;;;;;;;;0.80;99.90;;;;;;5016787;28;19906;-80
2021/12/07 07:17:01;;;;;;;;;;;0.80;99.90;;;;;;5089087;22;19919;-73
2021/12/07 07:19:26;;;;;;;;;;;0.80;99.90;;;;;;5032988;28;19928;-74
2021/12/07 07:21:52;;;;;;;;;;;0.90;99.90;;;;;;5033796;28;19913;-74
2021/12/07 07:24:17;;;;;;;;;;;0.90;99.90;;;;;;5015989;28;19983;-74
2021/12/07 07:26:43;;;;;;;;;;;1.00;99.90;;;;;;5015285;28;20051;-73
2021/12/07 07:29:09;;;;;;;;;;;1.00;99.90;;;;;;5016037;28;19905;-73
2021/12/07 07:31:36;;;;;;;;;;;0.90;99.90;;;;;;5015768;28;19905;-74
2021/12/07 07:34:02;;;;;;;;;;;0.90;99.90;;;;;;4998338;28;20327;-74
2021/12/07 07:36:28;;;;;;;;;;;1.00;99.90;;;;;;5015050;28;19908;-74
2021/12/07 07:38:54;;;;;;;;;;;1.00;99.90;;;;;;5032523;28;19996;-74
2021/12/07 07:41:19;;;;;;;;;;;0.90;99.90;;;;;;5015527;28;20370;-73
2021/12/07 07:43:45;;;;;;;;;;;1.10;99.90;;;;;;5033415;28;20287;-73
2021/12/07 07:46:11;;;;;;;;;;;1.10;99.90;;;;;;4999129;28;19999;-74
2021/12/07 07:48:36;;;;;;;;;;;1.10;99.90;;;;;;5015629;28;20314;-74
2021/12/07 07:51:02;;;;;;;;;;;1.20;99.90;;;;;;5032904;28;19924;-74
2021/12/07 07:53:28;;;;;;;;;;;1.20;99.90;;;;;;5015491;28;19913;-74
2021/12/07 07:55:54;;;;;;;;;;;1.20;99.90;;;;;;5032824;28;19905;-74
2021/12/07 07:58:19;;;;;;;;;;;1.30;99.90;;;;;;5033220;28;20265;-73
2021/12/07 08:00:45;;;;;;;;;;;1.30;99.90;;;;;;5033245;28;20373;-77
2021/12/07 08:03:12;;;;;;;;;;;1.30;99.90;;;;;;4997738;28;19905;-73
2021/12/07 08:05:38;;;;;;;;;;;1.30;99.90;;;;;;4998512;28;20003;-73
2021/12/07 08:08:04;;;;;;;;;;;1.30;99.90;;;;;;5030973;28;19990;-73
2021/12/07 08:10:29;;;;;;;;;;;1.30;99.90;;;;;;4998793;28;19905;-74
2021/12/07 08:12:56;;;;;;;;;;;1.40;99.90;;;;;;5031921;28;19928;-74
2021/12/07 08:15:23;;;;;;;;;;;1.40;99.90;;;;;;5026035;28;20221;-74
2021/12/07 08:17:48;;;;;;;;;;;1.40;99.90;;;;;;5028109;28;19926;-74
2021/12/07 08:20:14;;;;;;;;;;;1.50;99.90;;;;;;5020888;28;20257;-73
2021/12/07 08:22:40;;;;;;;;;;;1.60;99.90;;;;;;4998109;28;20423;-74
2021/12/07 08:25:06;;;;;;;;;;;1.60;99.90;;;;;;5030687;28;19905;-74
2021/12/07 08:27:31;;;;;;;;;;;1.50;99.90;;;;;;5031113;28;19920;-74
2021/12/07 08:29:57;;;;;;;;;;;1.50;99.90;;;;;;5030654;28;20319;-73
2021/12/07 08:32:23;;;;;;;;;;;1.60;99.90;;;;;;5031424;28;19948;-73
2021/12/07 08:34:49;;;;;;;;;;;1.60;99.90;;;;;;5030775;28;19931;-73
2021/12/07 08:37:14;;;;;;;;;;;1.70;99.90;;;;;;5030238;28;19940;-73
2021/12/07 08:39:40;;;;;;;;;;;1.70;99.90;;;;;;5013225;28;19920;-73
2021/12/07 08:42:06;;;;;;;;;;;1.70;99.90;;;;;;5029272;28;19935;-74
2021/12/07 08:44:32;;;;;;;;;;;1.60;99.90;;;;;;5030556;28;19912;-74
2021/12/07 08:46:58;;;;;;;;;;;1.70;99.90;;;;;;5029179;28;20393;-74
2021/12/07 08:49:23;;;;;;;;;;;1.60;99.90;;;;;;4995660;28;20327;-74
2021/12/07 08:51:50;;;;;;;;;;;1.60;99.90;;;;;;5022124;28;19955;-74
2021/12/07 09:02:07;;;;;;;;;;;2.00;99.90;;;;;;5025411;28;20342;-74
2021/12/07 09:04:33;;;;;;;;;;;2.10;99.90;;;;;;5011754;28;20485;-74
2021/12/07 09:06:59;;;;;;;;;;;2.30;99.90;;;;;;5030129;28;19916;-75
2021/12/07 09:09:24;;;;;;;;;;;2.30;99.90;;;;;;5028522;28;19912;-75
2021/12/07 09:11:52;;;;;;;;;;;2.30;99.90;;;;;;5001159;28;20467;-75
2021/12/07 09:14:18;;;;;;;;;;;2.40;99.90;;;;;;5030230;28;20397;-73
2021/12/07 09:16:45;;;;;;;;;;;2.50;99.90;;;;;;5030827;28;19905;-74
2021/12/07 09:19:12;;;;;;;;;;;2.50;99.90;;;;;;5030819;28;19920;-74
2021/12/07 09:21:38;;;;;;;;;;;2.40;99.90;;;;;;5017286;28;20331;-75
2021/12/07 09:24:03;;;;;;;;;;;2.40;99.90;;;;;;5030870;28;19905;-74
2021/12/07 09:26:29;;;;;;;;;;;2.40;99.90;;;;;;5015078;28;19959;-74
2021/12/07 09:28:55;;;;;;;;;;;2.50;99.90;;;;;;5030483;28;20309;-75
2021/12/07 09:31:22;;;;;;;;;;;2.60;99.90;;;;;;5017245;28;19935;-74
2021/12/07 09:33:48;;;;;;;;;;;2.50;99.90;;;;;;5015396;28;19909;-75
2021/12/07 09:36:14;;;;;;;;;;;2.40;99.90;;;;;;5029832;28;19951;-74
2021/12/07 09:38:40;;;;;;;;;;;2.30;99.90;;;;;;5018871;28;19905;-73
2021/12/07 09:41:07;;;;;;;;;;;2.30;99.90;;;;;;5012467;28;19963;-74
2021/12/07 09:43:33;;;;;;;;;;;2.40;99.90;;;;;;5030564;28;20323;-74
2021/12/07 09:45:59;;;;;;;;;;;2.20;99.90;;;;;;5013921;28;20395;-75
2021/12/07 09:48:25;;;;;;;;;;;2.30;99.90;;;;;;5030500;28;19905;-75
2021/12/07 09:50:51;;;;;;;;;;;2.20;99.90;;;;;;5014784;28;19905;-74
2021/12/07 09:53:17;;;;;;;;;;;2.20;99.90;;;;;;5030323;28;19905;-74
2021/12/07 09:55:44;;;;;;;;;;;2.40;99.90;;;;;;5025360;28;19991;-75
2021/12/07 09:58:10;;;;;;;;;;;2.50;99.90;;;;;;5008575;28;20395;-75
2021/12/07 10:00:36;;;;;;;;;;;2.40;99.90;;;;;;5029498;28;19948;-75
2021/12/07 10:03:02;;;;;;;;;;;2.40;99.90;;;;;;5034157;28;19918;-74
2021/12/07 10:05:30;;;;;;;;;;;2.30;99.90;;;;;;5021751;28;19909;-74
2021/12/07 10:07:56;;;;;;;;;;;2.30;99.90;;;;;;5004913;28;19905;-74
2021/12/07 10:10:24;;;;;;;;;;;2.40;99.90;;;;;;5023133;28;19905;-75
2021/12/07 10:12:50;;;;;;;;;;;2.30;99.90;;;;;;5033818;28;19905;-75
2021/12/07 10:15:16;;;;;;;;;;;2.40;99.90;;;;;;5033012;28;20446;-75
2021/12/07 10:17:42;;;;;;;;;;;2.40;99.90;;;;;;5033761;28;19917;-74
2021/12/07 10:20:25;;;;;;;;;;;2.50;99.90;;;;;;5026561;28;19909;-75
2021/12/07 10:22:51;;;;;;;;;;;2.40;99.90;;;;;;5031343;28;19913;-75
2021/12/07 10:25:27;;;;;;;;;;;2.40;99.90;;;;;;5034163;28;19912;-75
2021/12/07 10:27:53;;;;;;;;;;;2.40;99.90;;;;;;5016565;28;19905;-73
2021/12/07 10:30:21;;;;;;;;;;;2.60;99.90;;;;;;5020964;28;20431;-74
2021/12/07 10:33:01;;;;;;;;;;;2.70;99.90;;;;;;5020744;28;19913;-74
2021/12/07 10:35:32;;;;;;;;;;;2.50;99.90;;;;;;5027419;28;19905;-74
2021/12/07 10:38:15;;;;;;;;;;;2.60;99.90;;;;;;5023904;28;19996;-75
2021/12/07 10:41:22;;;;;;;;;;;2.60;99.90;;;;;;5024531;28;19916;-74
2021/12/07 10:43:54;;;;;;;;;;;2.40;99.90;;;;;;4933267;29;19917;-74
2021/12/07 10:46:31;;;;;;;;;;;2.60;99.90;;;;;;4899894;29;19907;-73
2021/12/07 10:49:15;;;;;;;;;;;2.60;99.90;;;;;;4992169;28;19913;-74
2021/12/07 10:51:42;;;;;;;;;;;2.60;99.90;;;;;;5031921;28;20219;-74
2021/12/07 10:54:08;;;;;;;;;;;2.60;99.90;;;;;;5003627;28;19912;-73
2021/12/07 10:56:37;;;;;;;;;;;2.70;99.90;;;;;;5019151;28;19905;-73
2021/12/07 10:59:05;;;;;;;;;;;2.80;99.90;;;;;;5024509;28;20513;-73
2021/12/07 11:01:41;;;;;;;;;;;2.80;99.90;;;;;;5022340;28;19916;-74
2021/12/07 11:04:26;;;;;;;;;;;2.70;99.90;;;;;;5028958;28;20296;-73
2021/12/07 11:07:10;;;;;;;;;;;2.60;99.90;;;;;;5032023;28;19971;-74
2021/12/07 11:09:49;;;;;;;;;;;2.60;99.90;;;;;;5032873;28;20399;-73
2021/12/07 11:12:17;;;;;;;;;;;2.90;99.90;;;;;;5009964;28;20001;-73
2021/12/07 11:14:48;;;;;;;;;;;2.90;99.90;;;;;;5015972;28;19940;-75
2021/12/07 11:17:14;;;;;;;;;;;2.90;99.90;;;;;;5021799;28;19909;-73
2021/12/07 11:19:40;;;;;;;;;;;2.80;99.90;;;;;;5027580;28;20399;-73
2021/12/07 11:22:05;;;;;;;;;;;3.00;99.90;;;;;;5023840;28;19956;-73
2021/12/07 11:24:36;;;;;;;;;;;3.00;99.90;;;;;;5032802;28;19927;-73
2021/12/07 11:30:00;;;;;;;;;;;3.50;99.90;;;;;;5032550;28;19905;-73
2021/12/07 11:32:26;;;;;;;;;;;3.60;99.90;;;;;;5031297;28;19935;-74
2021/12/07 11:34:52;;;;;;;;;;;3.70;99.90;;;;;;5020056;28;19905;-73
2021/12/07 11:37:17;;;;;;;;;;;3.60;99.90;;;;;;5020495;28;19982;-73
2021/12/07 11:39:50;;;;;;;;;;;3.60;99.90;;;;;;5023938;28;19905;-74
2021/12/07 11:42:21;;;;;;;;;;;3.70;99.90;;;;;;5031668;28;19909;-73
2021/12/07 11:44:52;;;;;;;;;;;3.60;99.90;;;;;;5032087;28;19905;-73
2021/12/07 11:47:31;;;;;;;;;;;3.70;99.90;;;;;;5002021;28;20016;-73
2021/12/07 11:49:58;;;;;;;;;;;3.70;99.90;;;;;;5031465;28;19905;-73
2021/12/07 11:52:24;;;;;;;;;;;3.80;99.90;;;;;;5021351;28;19911;-74
2021/12/07 11:54:50;;;;;;;;;;;4.00;99.90;;;;;;5031765;28;19996;-73
2021/12/07 11:57:17;;;;;;;;;;;4.20;99.90;;;;;;5018094;28;19905;-73
2021/12/07 11:59:45;;;;;;;;;;;3.90;99.90;;;;;;5007027;28;20292;-73
2021/12/07 12:02:10;;;;;;;;;;;3.50;99.90;;;;;;5031286;28;19913;-72
2021/12/07 12:04:36;;;;;;;;;;;3.50;99.90;;;;;;5019191;28;19959;-73
2021/12/07 12:07:03;;;;;;;;;;;3.50;99.90;;;;;;5031282;28;19913;-73
2021/12/07 12:09:29;;;;;;;;;;;3.40;99.90;;;;;;5018482;28;19955;-73
2021/12/07 12:12:28;;;;;;;;;;;3.40;99.90;;;;;;5026150;28;20277;-73
2021/12/07 12:15:00;;;;;;;;;;;3.30;99.90;;;;;;4973040;28;20369;-73
2021/12/07 12:17:45;;;;;;;;;;;3.10;99.90;;;;;;5030379;28;19924;-73
2021/12/07 12:20:20;;;;;;;;;;;3.30;99.90;;;;;;5022387;28;19908;-73
2021/12/07 12:22:45;;;;;;;;;;;3.20;99.90;;;;;;5023765;28;20373;-73
2021/12/07 12:25:12;;;;;;;;;;;3.10;99.90;;;;;;5030975;28;19912;-72
2021/12/07 12:27:38;;;;;;;;;;;3.00;99.90;;;;;;5014098;28;20364;-73
2021/12/07 12:30:15;;;;;;;;;;;3.00;99.90;;;;;;5007975;28;19912;-73
2021/12/07 12:32:42;;;;;;;;;;;3.10;99.90;;;;;;5030934;28;19916;-73
2021/12/07 12:35:08;;;;;;;;;;;3.40;99.90;;;;;;5031083;28;19912;-73
2021/12/07 12:37:34;;;;;;;;;;;3.40;99.90;;;;;;5000169;28;20276;-73
2021/12/07 12:40:07;;;;;;;;;;;3.40;99.90;;;;;;5031334;28;19912;-73
2021/12/07 12:43:01;;;;;;;;;;;3.20;99.90;;;;;;5019313;28;20388;-73
2021/12/07 12:45:37;;;;;;;;;;;3.20;99.90;;;;;;5014433;28;20280;-73
2021/12/07 12:48:04;;;;;;;;;;;3.20;99.90;;;;;;5010364;28;20328;-73
2021/12/07 12:50:35;;;;;;;;;;;3.30;99.90;;;;;;5031699;28;19949;-73
2021/12/07 12:53:04;;;;;;;;;;;3.50;99.90;;;;;;5030113;28;20324;-73
2021/12/07 12:55:41;;;;;;;;;;;4.50;99.90;;;;;;5024467;28;19904;-72
2021/12/07 12:58:09;;;;;;;;;;;5.30;99.90;;;;;;5021237;28;19966;-74
2021/12/07 13:00:54;;;;;;;;;;;6.90;99.90;;;;;;5022308;28;19917;-74
2021/12/07 13:03:20;;;;;;;;;;;7.20;99.10;;;;;;5008974;28;19909;-73
2021/12/07 13:05:56;;;;;;;;;;;7.90;95.00;;;;;;5012433;28;19967;-75
2021/12/07 13:08:22;;;;;;;;;;;7.90;92.60;;;;;;5017505;28;20446;-73
2021/12/07 13:10:55;;;;;;;;;;;8.40;90.60;;;;;;5030977;28;19999;-73
2021/12/07 13:13:25;;;;;;;;;;;8.40;90.40;;;;;;5030598;28;20415;-73
2021/12/07 13:15:51;;;;;;;;;;;9.50;87.90;;;;;;5029536;28;19905;-73
2021/12/07 13:18:21;;;;;;;;;;;10.20;84.90;;;;;;5023498;28;19924;-73
2021/12/07 13:20:50;;;;;;;;;;;10.10;78.20;;;;;;5013280;28;19955;-73
2021/12/07 13:23:16;;;;;;;;;;;8.70;79.50;;;;;;5013244;28;19916;-73
2021/12/07 13:25:47;;;;;;;;;;;7.80;84.70;;;;;;5030912;28;19913;-73
2021/12/07 13:28:13;;;;;;;;;;;7.50;86.90;;;;;;5029658;28;19909;-73
2021/12/07 13:30:44;;;;;;;;;;;7.40;89.70;;;;;;5032200;28;19913;-72
2021/12/07 13:33:14;;;;;;;;;;;7.10;89.70;;;;;;5017615;28;19905;-74
2021/12/07 13:35:40;;;;;;;;;;;6.80;90.00;;;;;;5016844;28;19947;-75
2021/12/07 13:38:24;;;;;;;;;;;6.20;91.80;;;;;;5003377;28;20395;-75
2021/12/07 13:40:51;;;;;;;;;;;6.00;92.90;;;;;;5035045;28;20273;-75
2021/12/07 13:43:33;;;;;;;;;;;5.80;93.10;;;;;;5022803;28;20275;-74
2021/12/07 13:46:06;;;;;;;;;;;5.80;93.80;;;;;;5017824;28;20349;-75
2021/12/07 13:48:33;;;;;;;;;;;5.70;94.00;;;;;;5023636;28;19905;-75
2021/12/07 13:50:59;;;;;;;;;;;5.60;94.30;;;;;;5035883;28;19908;-75
2021/12/07 13:53:26;;;;;;;;;;;5.50;95.30;;;;;;5023701;28;19905;-75
2021/12/07 13:55:51;;;;;;;;;;;5.50;95.50;;;;;;5033637;28;19905;-75
2021/12/07 13:58:17;;;;;;;;;;;5.10;94.90;;;;;;5034709;28;19905;-74
2021/12/07 14:00:43;;;;;;;;;;;4.90;95.90;;;;;;5034367;28;20067;-75
2021/12/07 14:03:10;;;;;;;;;;;4.80;96.70;;;;;;5034382;28;19909;-75
2021/12/07 14:05:36;;;;;;;;;;;4.80;97.20;;;;;;5033837;28;19987;-75
2021/12/07 14:08:04;;;;;;;;;;;4.80;98.10;;;;;;5026966;28;19905;-75
2021/12/07 14:10:30;;;;;;;;;;;4.80;98.00;;;;;;5034719;28;19905;-75
2021/12/07 14:12:57;;;;;;;;;;;4.70;98.50;;;;;;5034669;28;20019;-75
2021/12/07 14:15:28;;;;;;;;;;;4.50;98.70;;;;;;5034026;28;19948;-75
2021/12/07 14:17:58;;;;;;;;;;;4.50;99.40;;;;;;5021942;28;19928;-74
2021/12/07 14:20:27;;;;;;;;;;;4.30;99.90;;;;;;5004669;28;19909;-74
2021/12/07 14:22:53;;;;;;;;;;;4.30;99.90;;;;;;5001613;28;19912;-74
2021/12/07 14:25:18;;;;;;;;;;;4.40;99.90;;;;;;5033796;28;19913;-75
2021/12/07 14:27:47;;;;;;;;;;;4.50;99.90;;;;;;5023463;28;19973;-75
2021/12/07 14:30:14;;;;;;;;;;;4.40;99.90;;;;;;5020518;28;19952;-73
2021/12/07 14:32:41;;;;;;;;;;;4.40;99.90;;;;;;5033527;28;20372;-73
2021/12/07 14:35:06;;;;;;;;;;;4.60;99.90;;;;;;5032901;28;20342;-73
2021/12/07 14:37:32;;;;;;;;;;;4.50;99.90;;;;;;5033340;28;19908;-73
2021/12/07 14:39:58;;;;;;;;;;;4.50;99.90;;;;;;5020211;28;19912;-73
2021/12/07 14:42:23;;;;;;;;;;;4.40;99.90;;;;;;5019841;28;20329;-73
2021/12/07 14:44:54;;;;;;;;;;;4.40;99.90;;;;;;5033470;28;20409;-73
2021/12/07 14:47:20;;;;;;;;;;;4.50;99.90;;;;;;5038879;28;19905;-73
2021/12/07 14:49:47;;;;;;;;;;;4.50;99.90;;;;;;5020146;28;20000;-73
2021/12/07 14:52:16;;;;;;;;;;;4.40;99.90;;;;;;5003856;28;19950;-74
2021/12/07 14:54:42;;;;;;;;;;;4.30;99.90;;;;;;5024691;28;20369;-74
2021/12/07 14:57:08;;;;;;;;;;;4.00;99.90;;;;;;5033062;28;19916;-74
2021/12/07 14:59:35;;;;;;;;;;;3.40;99.90;;;;;;5032886;28;20049;-73
2021/12/07 15:02:00;;;;;;;;;;;3.20;99.90;;;;;;5020544;28;19936;-74
2021/12/07 15:04:26;;;;;;;;;;;2.90;99.90;;;;;;5023704;28;19909;-74
2021/12/07 15:06:56;;;;;;;;;;;2.70;99.90;;;;;;5025144;28;19920;-74
2021/12/07 15:09:22;;;;;;;;;;;2.60;99.90;;;;;;5033575;28;19905;-74
2021/12/07 15:11:49;;;;;;;;;;;2.60;99.90;;;;;;5021459;28;20473;-74
2021/12/07 15:14:17;;;;;;;;;;;2.50;99.90;;;;;;5022220;28;19905;-74
2021/12/07 15:16:44;;;;;;;;;;;2.50;99.90;;;;;;5006356;28;19905;-74
2021/12/07 15:19:09;;;;;;;;;;;2.40;99.90;;;;;;5019857;28;19922;-74
2021/12/07 15:21:36;;;;;;;;;;;2.20;99.90;;;;;;5031859;28;20285;-75
2021/12/07 15:24:12;;;;;;;;;;;2.30;99.90;;;;;;5032886;28;19958;-74
2021/12/07 15:26:39;;;;;;;;;;;2.30;99.90;;;;;;5032840;28;19922;-74
2021/12/07 15:29:07;;;;;;;;;;;2.40;99.90;;;;;;5005683;28;19912;-74
2021/12/07 15:31:38;;;;;;;;;;;2.20;99.90;;;;;;5016566;28;19931;-74
2021/12/07 15:34:05;;;;;;;;;;;2.30;99.90;;;;;;5019652;28;19905;-74
2021/12/07 15:36:32;;;;;;;;;;;2.30;99.90;;;;;;5026573;28;19916;-75
2021/12/07 15:39:09;;;;;;;;;;;2.20;99.90;;;;;;5014831;28;19912;-74
2021/12/07 15:41:36;;;;;;;;;;;2.20;99.90;;;;;;5031792;28;20022;-73
2021/12/07 15:44:01;;;;;;;;;;;2.10;99.90;;;;;;5027858;28;20361;-75
2021/12/07 15:46:27;;;;;;;;;;;2.00;99.90;;;;;;5031530;28;19955;-73
2021/12/07 15:48:55;;;;;;;;;;;1.90;99.90;;;;;;5032478;28;19905;-73
2021/12/07 15:51:20;;;;;;;;;;;1.60;99.90;;;;;;5031574;28;19905;-73
2021/12/07 15:53:46;;;;;;;;;;;1.60;99.90;;;;;;5031055;28;19909;-73
2021/12/07 15:56:16;;;;;;;;;;;1.30;99.90;;;;;;5031393;28;19971;-73
2021/12/07 15:58:41;;;;;;;;;;;1.00;99.90;;;;;;5019620;28;20410;-73
2021/12/07 16:01:07;;;;;;;;;;;0.90;99.90;;;;;;5031408;28;19909;-73
2021/12/07 16:03:37;;;;;;;;;;;1.10;99.90;;;;;;5032030;28;19917;-73
2021/12/07 16:06:05;;;;;;;;;;;1.20;99.90;;;;;;5023168;28;20043;-73
2021/12/07 16:08:37;;;;;;;;;;;1.30;99.90;;;;;;5028049;28;19905;-76
2021/12/07 16:11:04;;;;;;;;;;;1.20;99.90;;;;;;5031462;28;20339;-75
2021/12/07 16:13:37;;;;;;;;;;;1.50;99.90;;;;;;5018650;28;19905;-75